createdAt,value
2019-06-08T00:04:33.759Z,41.97
2019-06-08T00:09:37.310Z,42.27
2019-06-08T00:14:40.857Z,42.35
2019-06-08T00:19:44.304Z,42.34
2019-06-08T00:24:48.243Z,42.31
2019-06-08T00:29:51.714Z,42.20
2019-06-08T00:34:55.355Z,42.24
2019-06-08T00:39:58.810Z,42.10
2019-06-08T00:45:02.365Z,42.16
2019-06-08T00:50:07.502Z,42.15
2019-06-08T00:55:11.323Z,42.05
2019-06-08T01:00:15.528Z,42.01
2019-06-08T01:05:19.875Z,41.85
2019-06-08T01:10:25.552Z,41.92
2019-06-08T01:15:33.817Z,41.82
2019-06-08T01:20:34.608Z,41.70
2019-06-08T01:25:38.448Z,41.81
2019-06-08T01:30:41.932Z,41.78
2019-06-08T01:35:45.390Z,41.97
2019-06-08T01:40:48.858Z,41.64
2019-06-08T01:45:52.685Z,41.80
2019-06-08T01:50:56.144Z,41.80
2019-06-08T01:55:59.645Z,41.67
2019-06-08T02:01:03.700Z,41.65
2019-06-08T02:06:07.213Z,41.47
2019-06-08T02:11:10.633Z,41.61
2019-06-08T02:16:14.110Z,41.46
2019-06-08T02:21:17.752Z,41.49
2019-06-08T02:26:21.486Z,41.35
2019-06-08T02:31:24.972Z,41.38
2019-06-08T02:36:29.429Z,41.34
2019-06-08T02:41:35.187Z,41.33
2019-06-08T02:46:40.451Z,41.41
2019-06-08T02:51:44.469Z,41.45
2019-06-08T02:56:49.938Z,41.46
2019-06-08T03:01:55.858Z,41.33
2019-06-08T03:07:01.324Z,41.28
2019-06-08T03:12:05.577Z,41.33
2019-06-08T03:17:09.053Z,41.37
2019-06-08T03:22:12.534Z,41.35
2019-06-08T03:27:16.279Z,41.33
2019-06-08T03:32:19.764Z,41.34
2019-06-08T03:37:23.213Z,41.32
2019-06-08T03:42:26.685Z,41.42
2019-06-08T03:47:30.399Z,41.33
2019-06-08T03:52:35.426Z,41.30
2019-06-08T03:57:40.423Z,41.26
2019-06-08T04:02:46.637Z,41.30
2019-06-08T04:07:50.458Z,41.29
2019-06-08T04:12:54.213Z,41.36
2019-06-08T04:17:57.678Z,41.14
2019-06-08T04:23:01.296Z,41.07
2019-06-08T04:28:05.157Z,41.05
2019-06-08T04:33:08.617Z,41.06
2019-06-08T04:38:12.087Z,40.99
2019-06-08T04:43:15.551Z,40.98
2019-06-08T04:48:19.054Z,41.08
2019-06-08T04:53:22.505Z,41.13
2019-06-08T04:58:25.978Z,41.10
2019-06-08T05:03:29.455Z,40.99
2019-06-08T05:08:33.077Z,41.01
2019-06-08T05:13:36.534Z,41.05
2019-06-08T05:18:41.279Z,40.99
2019-06-08T05:23:45.584Z,41.05
2019-06-08T05:28:49.590Z,41.01
2019-06-08T05:33:53.170Z,40.93
2019-06-08T05:38:56.648Z,40.92
2019-06-08T05:44:00.110Z,40.91
2019-06-08T05:49:04.583Z,40.73
2019-06-08T05:54:08.111Z,40.93
2019-06-08T05:59:11.577Z,40.79
2019-06-08T06:04:15.154Z,40.63
2019-06-08T06:09:18.916Z,40.63
2019-06-08T06:14:22.376Z,40.80
2019-06-08T06:19:25.849Z,40.85
2019-06-08T06:24:29.341Z,40.85
2019-06-08T06:29:32.992Z,40.85
2019-06-08T06:34:36.535Z,40.77
2019-06-08T06:39:40.007Z,40.80
2019-06-08T06:44:45.722Z,40.71
2019-06-08T06:49:48.867Z,40.45
2019-06-08T06:54:53.311Z,40.46
2019-06-08T06:59:56.811Z,40.54
2019-06-08T07:05:00.589Z,40.67
2019-06-08T07:10:07.794Z,40.92
2019-06-08T07:15:11.604Z,40.62
2019-06-08T07:20:15.144Z,41.29
2019-06-08T07:25:18.599Z,41.13
2019-06-08T07:30:23.875Z,40.94
2019-06-08T07:35:27.315Z,40.84
2019-06-08T07:40:30.785Z,40.74
2019-06-08T07:45:34.255Z,40.76
2019-06-08T07:50:37.738Z,40.53
2019-06-08T07:55:41.203Z,40.69
2019-06-08T08:00:44.670Z,40.63
2019-06-08T08:05:48.246Z,40.38
2019-06-08T08:10:52.381Z,40.75
2019-06-08T08:15:58.753Z,39.45
2019-06-08T08:21:09.125Z,40.26
2019-06-08T08:26:06.412Z,40.49
2019-06-08T08:31:11.446Z,40.63
2019-06-08T08:36:15.424Z,39.85
2019-06-08T08:41:18.899Z,40.44
2019-06-08T08:46:22.387Z,39.75
2019-06-08T08:51:27.942Z,38.57
2019-06-08T08:56:31.263Z,38.73
2019-06-08T09:01:34.713Z,38.57
2019-06-08T09:06:38.375Z,38.98
2019-06-08T09:11:41.988Z,38.50
2019-06-08T09:16:47.983Z,38.60
2019-06-08T09:21:52.523Z,38.88
2019-06-08T09:27:00.073Z,38.11
2019-06-08T09:32:03.269Z,38.53
2019-06-08T09:37:08.056Z,37.80
2019-06-08T09:42:12.279Z,37.50
2019-06-08T09:47:17.948Z,37.62
2019-06-08T09:52:21.758Z,38.07
2019-06-08T09:57:25.390Z,37.84
2019-06-08T10:02:28.868Z,38.54
2019-06-08T10:07:32.460Z,38.27
2019-06-08T10:12:38.226Z,38.21
2019-06-08T10:17:41.238Z,38.11
2019-06-08T10:22:44.713Z,38.71
2019-06-08T10:27:48.169Z,37.47
2019-06-08T10:32:51.909Z,38.35
2019-06-08T10:37:57.775Z,38.39
2019-06-08T10:43:02.735Z,38.17
2019-06-08T10:48:06.396Z,38.23
2019-06-08T10:53:11.908Z,38.48
2019-06-08T10:58:15.210Z,38.45
2019-06-08T11:03:18.857Z,37.73
2019-06-08T11:08:22.387Z,38.04
2019-06-08T11:13:28.122Z,38.11
2019-06-08T11:18:31.149Z,38.03
2019-06-08T11:23:34.673Z,37.70
2019-06-08T11:28:38.400Z,37.68
2019-06-08T11:33:42.430Z,37.86
2019-06-08T11:38:47.801Z,38.67
2019-06-08T11:43:51.135Z,39.21
2019-06-08T11:48:54.608Z,39.18
2019-06-08T11:53:59.429Z,39.50
2019-06-08T11:59:03.645Z,39.79
2019-06-08T12:04:07.847Z,39.68
2019-06-08T12:09:12.726Z,39.10
2019-06-08T12:14:17.783Z,39.63
2019-06-08T12:19:21.681Z,40.09
2019-06-08T12:24:40.563Z,38.79
2019-06-08T12:29:30.363Z,38.99
2019-06-08T12:34:34.095Z,38.93
2019-06-08T12:39:38.706Z,38.69
2019-06-08T12:44:43.735Z,38.66
2019-06-08T12:49:48.417Z,39.32
2019-06-08T12:55:02.507Z,39.68
2019-06-08T12:59:59.797Z,40.08
2019-06-08T13:05:02.373Z,40.94
2019-06-08T13:10:07.176Z,40.94
2019-06-08T13:15:11.629Z,41.27
2019-06-08T13:20:22.092Z,41.22
2019-06-08T13:25:37.323Z,41.02
2019-06-08T13:30:32.417Z,41.31
2019-06-08T13:35:35.774Z,41.23
2019-06-08T13:40:40.294Z,40.60
2019-06-08T13:45:43.936Z,40.69
2019-06-08T13:50:49.947Z,40.55
2019-06-08T13:55:56.531Z,40.20
2019-06-08T14:00:59.747Z,40.08
2019-06-08T14:06:03.284Z,40.11
2019-06-08T14:11:08.282Z,39.79
2019-06-08T14:16:11.861Z,39.86
2019-06-08T14:21:15.348Z,40.62
2019-06-08T14:26:20.156Z,40.67
2019-06-08T14:31:25.604Z,40.52
2019-06-08T14:36:30.435Z,40.60
2019-06-08T14:41:34.260Z,40.76
2019-06-08T14:46:41.105Z,40.79
2019-06-08T14:51:52.638Z,40.38
2019-06-08T14:56:57.856Z,40.89
2019-06-08T15:02:01.370Z,41.32
2019-06-08T15:07:04.983Z,41.61
2019-06-08T15:12:09.409Z,41.61
2019-06-08T15:17:13.083Z,41.73
2019-06-08T15:22:18.800Z,41.93
2019-06-08T15:27:23.640Z,41.48
2019-06-08T15:32:28.276Z,41.65
2019-06-08T15:37:32.456Z,41.77
2019-06-08T15:42:36.033Z,41.64
2019-06-08T15:47:40.934Z,41.48
2019-06-08T15:52:44.481Z,41.80
2019-06-08T15:57:47.954Z,41.01
2019-06-08T16:02:51.585Z,41.00
2019-06-08T16:07:55.067Z,40.34
2019-06-08T16:12:58.771Z,40.19
2019-06-08T16:18:02.183Z,41.13
2019-06-08T16:23:05.753Z,41.10
2019-06-08T16:28:09.227Z,43.19
2019-06-08T16:33:13.032Z,44.16
2019-06-08T16:38:16.974Z,43.89
2019-06-08T16:43:20.485Z,43.93
2019-06-08T16:48:24.030Z,44.00
2019-06-08T16:53:27.509Z,43.99
2019-06-08T16:58:32.123Z,44.25
2019-06-08T17:03:36.885Z,44.31
2019-06-08T17:08:42.074Z,43.46
2019-06-08T17:13:46.011Z,43.87
2019-06-08T17:18:49.489Z,44.17
2019-06-08T17:23:52.986Z,43.84
2019-06-08T17:28:56.476Z,42.97
2019-06-08T17:33:59.973Z,42.94
2019-06-08T17:39:04.679Z,43.40
2019-06-08T17:44:08.484Z,44.40
2019-06-08T17:49:11.976Z,45.04
2019-06-08T17:54:15.448Z,46.21
2019-06-08T17:59:18.990Z,45.66
2019-06-08T18:04:22.477Z,45.80
2019-06-08T18:09:28.006Z,46.50
2019-06-08T18:14:31.157Z,46.52
2019-06-08T18:19:34.638Z,46.82
2019-06-08T18:24:41.929Z,47.02
2019-06-08T18:29:46.136Z,48.23
2019-06-08T18:34:50.049Z,47.90
2019-06-08T18:39:53.720Z,48.19
2019-06-08T18:44:58.251Z,48.64
2019-06-08T18:50:01.962Z,47.28
2019-06-08T18:55:09.252Z,47.83
2019-06-08T19:00:13.160Z,47.94
2019-06-08T19:05:20.789Z,48.14
2019-06-08T19:10:33.711Z,48.82
2019-06-08T19:15:42.274Z,47.70
2019-06-08T19:20:47.724Z,46.11
2019-06-08T19:25:50.487Z,45.30
2019-06-08T19:30:54.033Z,43.91
2019-06-08T19:35:58.362Z,44.91
2019-06-08T19:41:02.279Z,45.04
2019-06-08T19:46:07.219Z,45.12
2019-06-08T19:51:11.393Z,45.27
2019-06-08T19:56:17.197Z,45.44
2019-06-08T20:01:20.049Z,45.32
2019-06-08T20:06:23.788Z,45.55
2019-06-08T20:11:29.366Z,45.64
2019-06-08T20:16:33.169Z,45.58
2019-06-08T20:21:38.090Z,45.37
2019-06-08T20:26:42.247Z,45.55
2019-06-08T20:31:48.116Z,45.53
2019-06-08T20:36:51.054Z,45.57
2019-06-08T20:41:54.688Z,45.52
2019-06-08T20:46:58.208Z,45.47
2019-06-08T20:52:02.159Z,45.46
2019-06-08T20:57:07.623Z,44.44
2019-06-08T21:02:10.963Z,46.13
2019-06-08T21:07:14.703Z,46.08
2019-06-08T21:12:18.211Z,46.19
2019-06-08T21:17:22.085Z,46.23
2019-06-08T21:22:27.775Z,46.30
2019-06-08T21:27:30.933Z,46.59
2019-06-08T21:32:34.407Z,46.57
2019-06-08T21:37:38.033Z,46.83
2019-06-08T21:42:42.281Z,45.90
2019-06-08T21:47:48.563Z,46.28
2019-06-08T21:52:51.976Z,46.38
2019-06-08T21:58:01.501Z,46.30
2019-06-08T22:03:03.026Z,45.93
2019-06-08T22:08:07.959Z,46.39
2019-06-08T22:13:12.505Z,45.61
2019-06-08T22:18:18.432Z,45.73
2019-06-08T22:23:21.733Z,45.60
2019-06-08T22:28:27.029Z,45.57
2019-06-08T22:33:30.385Z,45.69
2019-06-08T22:38:34.006Z,45.61
2019-06-08T22:43:37.641Z,45.50
2019-06-08T22:48:42.610Z,45.35
2019-06-08T22:53:47.830Z,45.32
2019-06-08T22:58:51.412Z,45.30
2019-06-08T23:03:56.335Z,45.28
2019-06-08T23:09:02.502Z,45.31
2019-06-08T23:14:12.346Z,45.19
2019-06-08T23:19:10.866Z,45.17
2019-06-08T23:24:14.365Z,45.02
2019-06-08T23:29:17.986Z,44.90
2019-06-08T23:34:23.339Z,44.94
2019-06-08T23:39:28.413Z,44.77
2019-06-08T23:44:32.299Z,44.82
2019-06-08T23:49:37.882Z,44.68
2019-06-08T23:54:41.022Z,44.72
2019-06-08T23:59:44.503Z,44.38
